Terminal Aerodrome Forecast
Issued by NWS

Home | Current Version | Previous Version | Text Only | Print | Product List | Glossary On
Versions: 1 2 3 4 5 6 7 8 9 10 11 12 13 14 15 16 17
000
FTUS45 KRIW 242300
TAFCPR
TAF
KCPR 242320Z 2500/2524 01012G18KT P6SM VCTS SCT025 BKN050CB
      TEMPO 2500/2502 VRB10G20KT 6SM -TSRA BKN025CB
     FM250300 02009KT 6SM -SHRA BR SCT015 OVC025
     FM251600 23010KT P6SM SCT025 BKN050=

USA.gov is the U.S. government's official web portal to all federal, state and local government web resources and services.